createdAt,value
2023-04-15T00:01:37.326Z,7.26
2023-04-15T00:03:41.459Z,7.25
2023-04-15T00:05:45.114Z,7.24
2023-04-15T00:07:48.725Z,7.23
2023-04-15T00:09:55.223Z,7.21
2023-04-15T00:12:00.118Z,7.20
2023-04-15T00:14:03.555Z,7.19
2023-04-15T00:16:08.441Z,7.18
2023-04-15T00:18:11.938Z,7.15
2023-04-15T00:20:15.708Z,7.13
2023-04-15T00:22:19.358Z,7.13
2023-04-15T00:24:23.358Z,7.14
2023-04-15T00:26:27.148Z,7.14
2023-04-15T00:28:32.285Z,7.13
2023-04-15T00:30:35.902Z,7.11
2023-04-15T00:32:39.791Z,7.10
2023-04-15T00:34:43.885Z,7.10
2023-04-15T00:36:47.376Z,7.12
2023-04-15T00:38:50.787Z,7.12
2023-04-15T00:40:55.213Z,7.13
2023-04-15T00:42:58.775Z,7.12
2023-04-15T00:45:03.938Z,7.11
2023-04-15T00:47:07.995Z,7.10
2023-04-15T00:49:13.142Z,7.09
2023-04-15T00:51:16.566Z,7.07
2023-04-15T00:53:20.322Z,7.05
2023-04-15T00:55:23.858Z,7.03
2023-04-15T00:57:29.106Z,7.03
2023-04-15T00:59:33.402Z,7.04
2023-04-15T01:01:39.051Z,7.05
2023-04-15T01:03:43.815Z,7.07
2023-04-15T01:05:47.404Z,7.09
2023-04-15T01:07:50.967Z,7.08
2023-04-15T01:09:54.552Z,7.09
2023-04-15T01:11:58.708Z,7.08
2023-04-15T01:14:02.581Z,7.07
2023-04-15T01:16:06.977Z,7.04
2023-04-15T01:18:12.357Z,7.04
2023-04-15T01:20:16.785Z,7.03
2023-04-15T01:22:21.179Z,7.02
2023-04-15T01:24:25.438Z,7.03
2023-04-15T01:26:30.855Z,7.02
2023-04-15T01:28:34.563Z,7.03
2023-04-15T01:30:38.611Z,7.03
2023-04-15T01:32:42.705Z,7.02
2023-04-15T01:35:05.008Z,7.02
2023-04-15T01:37:24.722Z,7.02
2023-04-15T01:39:28.103Z,7.02
2023-04-15T01:41:35.121Z,7.02
2023-04-15T01:43:39.768Z,7.02
2023-04-15T01:45:47.157Z,6.98
2023-04-15T01:47:51.877Z,6.97
2023-04-15T01:49:56.904Z,6.95
2023-04-15T01:52:01.787Z,6.94
2023-04-15T01:54:06.564Z,6.91
2023-04-15T01:56:11.442Z,6.90
2023-04-15T01:58:17.615Z,6.90
2023-04-15T02:00:22.443Z,6.88
2023-04-15T02:02:27.414Z,6.88
2023-04-15T02:04:34.350Z,6.90
2023-04-15T02:06:38.967Z,6.92
2023-04-15T02:08:43.682Z,6.92
2023-04-15T02:10:48.759Z,6.92
2023-04-15T02:12:54.166Z,6.92
2023-04-15T02:15:00.991Z,6.91
2023-04-15T02:17:08.535Z,6.92
2023-04-15T02:19:14.091Z,6.93
2023-04-15T02:21:19.275Z,6.92
2023-04-15T02:23:23.981Z,6.94
2023-04-15T02:25:28.662Z,6.93
2023-04-15T02:27:33.341Z,6.94
2023-04-15T02:29:37.991Z,6.93
2023-04-15T02:31:45.074Z,6.94
2023-04-15T02:33:49.766Z,6.96
2023-04-15T02:35:54.600Z,6.97
2023-04-15T02:37:59.409Z,6.99
2023-04-15T02:40:05.041Z,6.99
2023-04-15T02:42:09.729Z,7.00
2023-04-15T02:44:14.669Z,7.02
2023-04-15T02:46:22.077Z,7.06
2023-04-15T02:48:28.502Z,7.07
2023-04-15T02:50:33.322Z,7.08
2023-04-15T02:52:38.123Z,7.09
2023-04-15T02:54:42.839Z,7.09
2023-04-15T02:56:47.556Z,7.08
2023-04-15T02:58:52.383Z,7.09
2023-04-15T03:00:57.072Z,7.08
2023-04-15T03:03:04.804Z,7.09
2023-04-15T03:05:13.359Z,7.11
2023-04-15T03:07:22.270Z,7.11
2023-04-15T03:09:27.090Z,7.12
2023-04-15T03:11:33.610Z,7.13
2023-04-15T03:13:39.600Z,7.14
2023-04-15T03:15:49.726Z,7.14
2023-04-15T03:17:54.459Z,7.13
2023-04-15T03:19:59.196Z,7.12
2023-04-15T03:22:06.355Z,7.11
2023-04-15T03:24:11.268Z,7.13
2023-04-15T03:26:25.786Z,7.12
2023-04-15T03:28:30.852Z,7.14
2023-04-15T03:30:36.644Z,7.15
2023-04-15T03:32:41.516Z,7.15
2023-04-15T03:34:46.672Z,7.17
2023-04-15T03:36:51.426Z,7.17
2023-04-15T03:38:57.980Z,7.15
2023-04-15T03:41:02.594Z,7.13
2023-04-15T03:43:07.252Z,7.12
2023-04-15T03:45:12.885Z,7.10
2023-04-15T03:47:17.540Z,7.11
2023-04-15T03:49:23.141Z,7.11
2023-04-15T03:51:27.754Z,7.11
2023-04-15T03:53:32.430Z,7.13
2023-04-15T03:55:38.504Z,7.12
2023-04-15T03:57:43.191Z,7.12
2023-04-15T03:59:47.870Z,7.11
2023-04-15T04:01:52.557Z,7.10
2023-04-15T04:03:57.472Z,7.09
2023-04-15T04:06:02.242Z,7.09
2023-04-15T04:08:07.585Z,7.09
2023-04-15T04:10:12.638Z,7.11
2023-04-15T04:12:18.759Z,7.11
2023-04-15T04:14:29.351Z,7.11
2023-04-15T04:16:34.086Z,7.11
2023-04-15T04:18:38.944Z,7.11
2023-04-15T04:20:43.796Z,7.12
2023-04-15T04:22:48.563Z,7.11
2023-04-15T04:24:53.307Z,7.12
2023-04-15T04:26:58.214Z,7.13
2023-04-15T04:29:04.531Z,7.14
2023-04-15T04:31:09.399Z,7.15
2023-04-15T04:33:14.286Z,7.17
2023-04-15T04:35:19.073Z,7.20
2023-04-15T04:37:24.752Z,7.21
2023-04-15T04:39:29.583Z,7.22
2023-04-15T04:41:34.267Z,7.24
2023-04-15T04:43:38.956Z,7.26
2023-04-15T04:45:45.258Z,7.27
2023-04-15T04:47:50.131Z,7.28
2023-04-15T04:49:54.878Z,7.28
2023-04-15T04:51:59.757Z,7.27
2023-04-15T04:54:05.137Z,7.28
2023-04-15T04:56:10.337Z,7.28
2023-04-15T04:58:15.082Z,7.29
2023-04-15T05:00:20.441Z,7.31
2023-04-15T05:02:27.565Z,7.33
2023-04-15T05:04:32.602Z,7.33
2023-04-15T05:06:37.604Z,7.35
2023-04-15T05:08:42.614Z,7.36
2023-04-15T05:10:47.528Z,7.37
2023-04-15T05:12:52.733Z,7.38
2023-04-15T05:14:57.641Z,7.40
2023-04-15T05:17:02.294Z,7.41
2023-04-15T05:19:08.588Z,7.41
2023-04-15T05:21:13.618Z,7.41
2023-04-15T05:23:18.977Z,7.41
2023-04-15T05:25:23.676Z,7.41
2023-04-15T05:27:28.368Z,7.41
2023-04-15T05:29:33.068Z,7.43
2023-04-15T05:31:38.321Z,7.44
2023-04-15T05:33:43.442Z,7.46
2023-04-15T05:35:49.567Z,7.47
2023-04-15T05:37:54.283Z,7.49
2023-04-15T05:40:00.495Z,7.50
2023-04-15T05:42:07.586Z,7.53
2023-04-15T05:44:13.153Z,7.56
2023-04-15T05:46:18.680Z,7.58
2023-04-15T05:48:23.431Z,7.59
2023-04-15T05:50:28.157Z,7.58
2023-04-15T05:52:34.480Z,7.58
2023-04-15T05:54:39.255Z,7.58
2023-04-15T05:56:44.044Z,7.58
2023-04-15T05:58:48.827Z,7.59
2023-04-15T06:00:55.114Z,7.58
2023-04-15T06:03:00.430Z,7.59
2023-04-15T06:05:09.817Z,7.60
2023-04-15T06:07:14.735Z,7.61
2023-04-15T06:09:21.052Z,7.62
2023-04-15T06:11:26.870Z,7.63
2023-04-15T06:13:31.612Z,7.62
2023-04-15T06:15:36.307Z,7.63
2023-04-15T06:17:41.070Z,7.63
2023-04-15T06:19:45.998Z,7.63
2023-04-15T06:21:50.755Z,7.65
2023-04-15T06:23:56.780Z,7.68
2023-04-15T06:26:06.429Z,7.71
2023-04-15T06:28:19.310Z,7.73
2023-04-15T06:30:24.549Z,7.76
2023-04-15T06:32:38.063Z,7.79
2023-04-15T06:34:52.215Z,7.80
2023-04-15T06:36:59.100Z,7.82
2023-04-15T06:39:09.233Z,7.83
2023-04-15T06:41:17.575Z,7.84
2023-04-15T06:43:25.402Z,7.86
2023-04-15T06:45:32.486Z,7.90
2023-04-15T06:47:38.132Z,7.93
2023-04-15T06:49:45.032Z,7.94
2023-04-15T06:51:51.496Z,7.96
2023-04-15T06:53:57.288Z,7.97
2023-04-15T06:56:02.077Z,7.99
2023-04-15T06:58:08.256Z,8.03
2023-04-15T07:00:14.074Z,8.04
2023-04-15T07:02:18.868Z,8.03
2023-04-15T07:04:24.590Z,8.02
2023-04-15T07:06:29.425Z,8.02
2023-04-15T07:08:34.146Z,8.03
2023-04-15T07:10:38.878Z,8.05
2023-04-15T07:12:43.689Z,8.08
2023-04-15T07:14:49.797Z,8.11
2023-04-15T07:16:54.583Z,8.13
2023-04-15T07:18:59.445Z,8.16
2023-04-15T07:21:04.534Z,8.17
2023-04-15T07:23:09.415Z,8.19
2023-04-15T07:25:14.141Z,8.21
2023-04-15T07:27:18.869Z,8.23
2023-04-15T07:29:23.587Z,8.26
2023-04-15T07:31:29.809Z,8.27
2023-04-15T07:33:34.552Z,8.29
2023-04-15T07:35:39.352Z,8.32
2023-04-15T07:37:44.533Z,8.35
2023-04-15T07:39:49.186Z,8.38
2023-04-15T07:41:54.082Z,8.41
2023-04-15T07:43:59.057Z,8.45
2023-04-15T07:46:03.743Z,8.50
2023-04-15T07:48:09.935Z,8.52
2023-04-15T07:50:14.655Z,8.53
2023-04-15T07:52:19.497Z,8.54
2023-04-15T07:54:24.255Z,8.56
2023-04-15T07:56:29.045Z,8.57
2023-04-15T07:58:34.794Z,8.58
2023-04-15T08:00:40.278Z,8.59
2023-04-15T08:02:47.021Z,8.57
2023-04-15T08:04:53.438Z,8.58
2023-04-15T08:06:58.577Z,8.58
2023-04-15T08:09:03.638Z,8.59
2023-04-15T08:11:08.653Z,8.62
2023-04-15T08:13:13.611Z,8.64
2023-04-15T08:15:18.463Z,8.68
2023-04-15T08:17:23.229Z,8.72
2023-04-15T08:19:28.151Z,8.78
2023-04-15T08:21:34.296Z,8.82
2023-04-15T08:23:39.360Z,8.80
2023-04-15T08:25:44.055Z,8.79
2023-04-15T08:27:48.720Z,8.79
2023-04-15T08:29:54.172Z,8.81
2023-04-15T08:31:59.141Z,8.83
2023-04-15T08:34:03.923Z,8.83
2023-04-15T08:36:09.430Z,8.84
2023-04-15T08:38:15.657Z,8.84
2023-04-15T08:40:20.825Z,8.86
2023-04-15T08:42:32.613Z,8.90
2023-04-15T08:44:38.403Z,8.93
2023-04-15T08:46:44.731Z,8.99
2023-04-15T08:48:51.135Z,9.06
2023-04-15T08:50:56.165Z,9.11
2023-04-15T08:53:01.480Z,9.13
2023-04-15T08:55:10.680Z,9.14
2023-04-15T08:57:16.395Z,9.17
2023-04-15T08:59:22.106Z,9.17
2023-04-15T09:01:27.203Z,9.18
2023-04-15T09:03:33.652Z,9.19
2023-04-15T09:05:39.663Z,9.19
2023-04-15T09:07:44.591Z,9.20
2023-04-15T09:09:50.470Z,9.22
2023-04-15T09:11:56.934Z,9.26
2023-04-15T09:14:01.632Z,9.29
2023-04-15T09:16:08.477Z,9.34
2023-04-15T09:18:13.819Z,9.37
2023-04-15T09:20:19.933Z,9.42
2023-04-15T09:22:24.762Z,9.44
2023-04-15T09:24:38.971Z,9.47
2023-04-15T09:26:44.176Z,9.53
2023-04-15T09:28:50.249Z,9.59
2023-04-15T09:30:58.339Z,9.64
2023-04-15T09:33:08.159Z,9.69
2023-04-15T09:35:14.122Z,9.77
2023-04-15T09:37:31.826Z,9.87
2023-04-15T09:39:51.087Z,10.00
2023-04-15T09:42:08.770Z,10.08
2023-04-15T09:44:25.714Z,10.11
2023-04-15T09:46:43.819Z,10.17
2023-04-15T09:48:48.540Z,10.23
2023-04-15T09:50:54.110Z,10.34
2023-04-15T09:52:59.707Z,10.46
2023-04-15T09:55:04.513Z,10.56
2023-04-15T09:57:10.206Z,10.61
2023-04-15T09:59:15.733Z,10.67
2023-04-15T10:01:22.918Z,10.76
2023-04-15T10:03:30.413Z,10.87
2023-04-15T10:05:36.192Z,10.97
2023-04-15T10:07:42.955Z,11.06
2023-04-15T10:09:48.113Z,11.18
2023-04-15T10:11:53.523Z,11.31
2023-04-15T10:13:59.092Z,11.40
2023-04-15T10:16:07.980Z,11.48
2023-04-15T10:18:17.233Z,11.54
2023-04-15T10:20:23.975Z,11.57
2023-04-15T10:22:29.900Z,11.61
2023-04-15T10:24:34.895Z,11.70
2023-04-15T10:26:39.943Z,11.78
2023-04-15T10:28:44.671Z,11.87
2023-04-15T10:30:50.128Z,12.02
2023-04-15T10:32:55.294Z,12.17
2023-04-15T10:35:02.490Z,12.30
2023-04-15T10:37:11.109Z,12.38
2023-04-15T10:39:41.188Z,12.48
2023-04-15T10:41:45.875Z,12.57
2023-04-15T10:43:53.094Z,12.66
2023-04-15T10:45:57.881Z,12.74
2023-04-15T10:48:04.532Z,12.86
2023-04-15T10:50:11.626Z,13.03
2023-04-15T10:52:17.930Z,13.19
2023-04-15T10:54:34.798Z,13.34
2023-04-15T10:56:39.627Z,13.40
2023-04-15T10:58:45.553Z,13.42
2023-04-15T11:00:53.565Z,13.42
2023-04-15T11:02:59.670Z,13.38
2023-04-15T11:05:04.513Z,13.38
2023-04-15T11:07:11.114Z,13.44
2023-04-15T11:09:33.329Z,13.64
2023-04-15T11:12:09.849Z,13.84
2023-04-15T11:14:17.292Z,14.00
2023-04-15T11:16:23.109Z,14.09
2023-04-15T11:18:30.656Z,14.12
2023-04-15T11:20:35.403Z,14.16
2023-04-15T11:22:49.159Z,14.21
2023-04-15T11:24:54.088Z,14.27
2023-04-15T11:26:59.969Z,14.29
2023-04-15T11:29:05.388Z,14.28
2023-04-15T11:31:12.786Z,14.22
2023-04-15T11:33:18.006Z,14.18
2023-04-15T11:35:23.183Z,14.14
2023-04-15T11:37:31.781Z,14.12
2023-04-15T11:39:38.909Z,14.08
2023-04-15T11:41:44.242Z,14.03
2023-04-15T11:43:48.944Z,13.99
2023-04-15T11:45:55.666Z,13.95
2023-04-15T11:48:07.895Z,13.87
2023-04-15T11:50:16.734Z,13.81
2023-04-15T11:52:20.232Z,13.75
2023-04-15T11:54:23.914Z,13.69
2023-04-15T11:56:28.826Z,13.64
2023-04-15T11:58:32.543Z,13.63
2023-04-15T12:00:36.861Z,13.67
2023-04-15T12:02:40.526Z,13.74
2023-04-15T12:04:46.381Z,13.77
2023-04-15T12:06:50.124Z,13.81
2023-04-15T12:09:05.868Z,13.80
2023-04-15T12:11:09.304Z,13.78
2023-04-15T12:13:14.181Z,13.75
2023-04-15T12:15:17.877Z,13.74
2023-04-15T12:17:21.410Z,13.74
2023-04-15T12:19:27.675Z,13.73
2023-04-15T12:21:37.164Z,13.73
2023-04-15T12:23:41.668Z,13.69
2023-04-15T12:25:45.114Z,13.59
2023-04-15T12:27:53.539Z,13.50
2023-04-15T12:30:08.119Z,13.39
2023-04-15T12:32:13.188Z,13.31
2023-04-15T12:34:16.974Z,13.27
2023-04-15T12:36:20.370Z,13.25
2023-04-15T12:38:23.844Z,13.21
2023-04-15T12:40:27.311Z,13.17
2023-04-15T12:42:30.677Z,13.12
2023-04-15T12:44:34.686Z,13.12
2023-04-15T12:46:39.678Z,13.13
2023-04-15T12:48:43.587Z,13.14
2023-04-15T12:50:47.198Z,13.17
2023-04-15T12:52:50.536Z,13.21
2023-04-15T12:54:54.876Z,13.22
2023-04-15T12:56:58.495Z,13.25
2023-04-15T12:59:02.279Z,13.33
2023-04-15T13:01:06.624Z,13.39
2023-04-15T13:03:11.657Z,13.45
2023-04-15T13:05:15.980Z,13.49
2023-04-15T13:07:19.452Z,13.55
2023-04-15T13:09:22.902Z,13.59
2023-04-15T13:11:26.564Z,13.65
2023-04-15T13:13:32.008Z,13.69
2023-04-15T13:15:35.795Z,13.76
2023-04-15T13:17:39.684Z,13.81
2023-04-15T13:19:44.677Z,13.87
2023-04-15T13:21:48.340Z,13.95
2023-04-15T13:23:52.381Z,14.07
2023-04-15T13:25:56.088Z,14.18
2023-04-15T13:28:01.305Z,14.23
2023-04-15T13:30:07.684Z,14.24
2023-04-15T13:32:12.214Z,14.27
2023-04-15T13:34:15.689Z,14.30
2023-04-15T13:36:21.224Z,14.34
2023-04-15T13:38:26.249Z,14.37
2023-04-15T13:40:29.942Z,14.39
2023-04-15T13:42:33.422Z,14.39
2023-04-15T13:44:37.121Z,14.38
2023-04-15T13:46:42.063Z,14.37
2023-04-15T13:48:45.541Z,14.35
2023-04-15T13:50:49.169Z,14.34
2023-04-15T13:52:54.102Z,14.35
2023-04-15T13:55:06.970Z,14.38
2023-04-15T13:57:20.878Z,14.40
2023-04-15T13:59:24.345Z,14.43
2023-04-15T14:01:27.953Z,14.51
2023-04-15T14:03:31.705Z,14.60
2023-04-15T14:05:35.681Z,14.64
2023-04-15T14:07:39.307Z,14.60
2023-04-15T14:09:44.786Z,14.59
2023-04-15T14:11:48.214Z,14.67
2023-04-15T14:13:51.738Z,14.80
2023-04-15T14:15:55.265Z,14.86
2023-04-15T14:17:59.144Z,14.84
2023-04-15T14:20:02.893Z,14.82
2023-04-15T14:22:06.514Z,14.78
2023-04-15T14:24:10.003Z,14.76
2023-04-15T14:26:15.008Z,14.87
2023-04-15T14:28:18.518Z,14.93
2023-04-15T14:30:22.072Z,14.96
2023-04-15T14:32:26.634Z,14.96
2023-04-15T14:35:00.712Z,14.87
2023-04-15T14:37:05.179Z,14.74
2023-04-15T14:39:09.334Z,14.57
2023-04-15T14:41:14.509Z,14.42
2023-04-15T14:43:18.259Z,14.27
2023-04-15T14:45:21.751Z,14.16
2023-04-15T14:47:26.320Z,14.07
2023-04-15T15:12:06.737Z,13.54
2023-04-15T15:14:11.430Z,13.55
2023-04-15T15:16:16.139Z,13.56
2023-04-15T15:18:19.932Z,13.54
2023-04-15T15:20:23.653Z,13.52
2023-04-15T15:22:27.210Z,13.51
2023-04-15T15:24:30.898Z,13.53
2023-04-15T15:26:34.417Z,13.55
2023-04-15T15:28:39.277Z,13.58
2023-04-15T15:30:42.742Z,13.62
2023-04-15T15:32:46.284Z,13.63
2023-04-15T15:34:49.816Z,13.61
2023-04-15T15:36:53.296Z,13.56
2023-04-15T15:38:58.556Z,13.50
2023-04-15T15:41:03.092Z,13.46
2023-04-15T15:43:06.555Z,13.43
2023-04-15T15:45:12.274Z,13.39
2023-04-15T15:47:15.788Z,13.35
2023-04-15T15:49:19.921Z,13.31
2023-04-15T15:51:23.398Z,13.25
2023-04-15T15:53:26.884Z,13.19
2023-04-15T15:55:30.651Z,13.16
2023-04-15T15:57:34.188Z,13.10
2023-04-15T15:59:41.178Z,13.06
2023-04-15T16:01:46.174Z,13.03
2023-04-15T16:03:49.896Z,13.02
2023-04-15T16:05:53.412Z,13.00
2023-04-15T16:07:56.823Z,12.96
2023-04-15T16:10:00.317Z,12.89
2023-04-15T16:12:04.046Z,12.84
2023-04-15T16:14:07.609Z,12.80
2023-04-15T16:16:11.397Z,12.73
2023-04-15T16:18:16.292Z,12.69
2023-04-15T16:20:19.981Z,12.63
2023-04-15T16:22:23.413Z,12.57
2023-04-15T16:24:28.061Z,12.51
2023-04-15T16:26:32.392Z,12.46
2023-04-15T16:28:36.113Z,12.40
2023-04-15T16:30:41.378Z,12.36
2023-04-15T16:32:44.942Z,12.30
2023-04-15T16:34:49.821Z,12.24
2023-04-15T16:36:53.457Z,12.20
2023-04-15T16:38:56.983Z,12.15
2023-04-15T16:41:02.650Z,12.14
2023-04-15T16:43:07.420Z,12.11
2023-04-15T16:45:11.785Z,12.08
2023-04-15T16:47:15.294Z,12.08
2023-04-15T16:49:19.364Z,12.05
2023-04-15T16:51:24.278Z,12.02
2023-04-15T16:53:27.775Z,11.98
2023-04-15T16:55:31.364Z,11.94
2023-04-15T16:58:00.456Z,11.91
2023-04-15T16:59:58.805Z,11.86
2023-04-15T17:02:02.899Z,11.84
2023-04-15T17:04:09.162Z,11.82
2023-04-15T17:06:13.293Z,11.79
2023-04-15T17:08:18.211Z,11.76
2023-04-15T17:10:21.752Z,11.72
2023-04-15T17:12:25.171Z,11.67
2023-04-15T17:14:29.107Z,11.62
2023-04-15T17:16:34.904Z,11.58
2023-04-15T17:18:39.777Z,11.54
2023-04-15T17:20:50.974Z,11.51
2023-04-15T17:22:54.796Z,11.48
2023-04-15T17:25:02.857Z,11.47
2023-04-15T17:27:09.555Z,11.43
2023-04-15T17:29:14.133Z,11.41
2023-04-15T17:31:22.794Z,11.38
2023-04-15T17:34:00.277Z,11.38
2023-04-15T17:36:30.979Z,11.38
2023-04-15T17:38:54.457Z,11.37
2023-04-15T17:41:19.363Z,11.36
2023-04-15T17:43:42.882Z,11.31
2023-04-15T17:46:08.445Z,11.27
2023-04-15T17:48:31.901Z,11.23
2023-04-15T17:50:55.539Z,11.19
2023-04-15T17:53:18.980Z,11.14
2023-04-15T17:55:42.418Z,11.11
2023-04-15T17:58:07.273Z,11.07
2023-04-15T18:00:30.621Z,11.04
2023-04-15T18:02:54.180Z,11.00
2023-04-15T18:05:19.821Z,10.97
2023-04-15T18:07:43.398Z,10.93
2023-04-15T18:10:08.789Z,10.89
2023-04-15T18:12:32.172Z,10.85
2023-04-15T18:14:57.062Z,10.81
2023-04-15T18:17:20.821Z,10.78
2023-04-15T18:19:45.952Z,10.73
2023-04-15T18:21:49.362Z,10.70
2023-04-15T18:23:52.748Z,10.67
2023-04-15T18:25:57.349Z,10.65
2023-04-15T18:28:00.982Z,10.62
2023-04-15T18:30:07.271Z,10.59
2023-04-15T18:32:11.249Z,10.57
2023-04-15T18:34:14.814Z,10.53
2023-04-15T18:36:18.387Z,10.50
2023-04-15T18:38:21.912Z,10.45
2023-04-15T18:40:25.392Z,10.41
2023-04-15T18:42:28.959Z,10.37
2023-04-15T18:44:32.695Z,10.32
2023-04-15T18:46:37.622Z,10.24
2023-04-15T18:48:41.258Z,10.19
2023-04-15T18:50:45.103Z,10.14
2023-04-15T18:52:48.689Z,10.10
2023-04-15T18:54:52.189Z,10.04
2023-04-15T18:56:56.619Z,10.00
2023-04-15T18:59:27.566Z,9.96
2023-04-15T19:01:23.660Z,9.94
2023-04-15T19:03:29.330Z,9.94
2023-04-15T19:05:33.200Z,9.93
2023-04-15T19:07:38.864Z,9.90
2023-04-15T19:09:43.396Z,9.88
2023-04-15T19:11:47.713Z,9.87
2023-04-15T19:13:53.584Z,9.84
2023-04-15T19:16:04.072Z,9.83
2023-04-15T19:18:14.850Z,9.83
2023-04-15T19:20:22.747Z,9.80
2023-04-15T19:22:31.903Z,9.80
2023-04-15T19:24:38.688Z,9.78
2023-04-15T19:26:42.993Z,9.75
2023-04-15T19:28:47.119Z,9.71
2023-04-15T19:30:52.431Z,9.67
2023-04-15T19:32:55.993Z,9.62
2023-04-15T19:34:59.571Z,9.56
2023-04-15T19:37:04.521Z,9.53
2023-04-15T19:39:08.258Z,9.50
2023-04-15T19:41:13.967Z,9.47
2023-04-15T19:43:17.933Z,9.45
2023-04-15T19:45:21.333Z,9.42
2023-04-15T19:47:24.828Z,9.40
2023-04-15T19:49:28.356Z,9.39
2023-04-15T19:51:31.934Z,9.37
2023-04-15T19:53:36.920Z,9.35
2023-04-15T19:55:40.513Z,9.33
2023-04-15T19:57:45.415Z,9.32
2023-04-15T19:59:52.431Z,9.32
2023-04-15T20:01:56.165Z,9.29
2023-04-15T20:04:00.151Z,9.26
2023-04-15T20:06:04.075Z,9.24
2023-04-15T20:08:07.808Z,9.22
2023-04-15T20:10:13.395Z,9.22
2023-04-15T20:12:49.303Z,9.22
2023-04-15T20:14:41.358Z,9.22
2023-04-15T20:16:44.917Z,9.19
2023-04-15T20:18:48.362Z,9.18
2023-04-15T20:20:52.014Z,9.16
2023-04-15T20:22:55.700Z,9.15
2023-04-15T20:24:59.202Z,9.15
2023-04-15T20:27:04.110Z,9.13
2023-04-15T20:29:07.906Z,9.13
2023-04-15T20:31:11.838Z,9.12
2023-04-15T20:33:15.544Z,9.10
2023-04-15T20:35:19.919Z,9.08
2023-04-15T20:37:23.449Z,9.06
2023-04-15T20:39:27.131Z,9.01
2023-04-15T20:41:30.676Z,8.99
2023-04-15T20:43:35.620Z,8.97
2023-04-15T20:45:39.475Z,8.94
2023-04-15T20:47:43.182Z,8.94
2023-04-15T20:49:47.524Z,8.91
2023-04-15T20:51:50.977Z,8.90
2023-04-15T20:53:55.636Z,8.89
2023-04-15T20:56:00.326Z,8.88
2023-04-15T20:58:03.769Z,8.87
2023-04-15T21:00:11.045Z,8.84
2023-04-15T21:02:14.757Z,8.81
2023-04-15T21:04:18.596Z,8.79
2023-04-15T21:06:22.153Z,8.77
2023-04-15T21:08:30.046Z,8.73
2023-04-15T21:10:35.407Z,8.72
2023-04-15T21:12:40.952Z,8.69
2023-04-15T21:14:44.353Z,8.65
2023-04-15T21:16:49.259Z,8.62
2023-04-15T21:18:52.722Z,8.59
2023-04-15T21:20:59.952Z,8.56
2023-04-15T21:23:03.450Z,8.54
2023-04-15T21:25:07.888Z,8.51
2023-04-15T21:27:11.569Z,8.46
2023-04-15T21:29:15.092Z,8.44
2023-04-15T21:31:18.898Z,8.42
2023-04-15T21:33:24.106Z,8.40
2023-04-15T21:35:28.741Z,8.37
2023-04-15T21:37:32.634Z,8.34
2023-04-15T21:39:36.169Z,8.33
2023-04-15T21:41:39.649Z,8.30
2023-04-15T21:43:43.146Z,8.28
2023-04-15T21:46:21.374Z,8.28
2023-04-15T21:48:10.122Z,8.27
2023-04-15T21:50:15.231Z,8.27
2023-04-15T21:52:18.909Z,8.26
2023-04-15T21:54:22.416Z,8.26
2023-04-15T21:56:26.528Z,8.24
2023-04-15T21:58:30.011Z,8.24
2023-04-15T22:00:34.265Z,8.24
2023-04-15T22:02:38.516Z,8.23
2023-04-15T22:04:42.039Z,8.21
2023-04-15T22:06:47.038Z,8.22
2023-04-15T22:08:57.062Z,8.22
2023-04-15T22:11:01.369Z,8.22
2023-04-15T22:13:08.590Z,8.24
2023-04-15T22:15:12.197Z,8.24
2023-04-15T22:17:15.647Z,8.24
2023-04-15T22:19:19.251Z,8.21
2023-04-15T22:21:22.777Z,8.20
2023-04-15T22:23:27.686Z,8.18
2023-04-15T22:25:31.706Z,8.14
2023-04-15T22:27:35.229Z,8.12
2023-04-15T22:29:38.932Z,8.11
2023-04-15T22:31:42.479Z,8.10
2023-04-15T22:33:46.127Z,8.08
2023-04-15T22:35:49.636Z,8.06
2023-04-15T22:37:53.929Z,8.05
2023-04-15T22:39:58.792Z,8.03
2023-04-15T22:42:02.561Z,8.00
2023-04-15T22:44:06.076Z,8.00
2023-04-15T22:46:09.535Z,7.99
2023-04-15T22:48:13.104Z,7.98
2023-04-15T22:50:16.604Z,7.98
2023-04-15T22:52:30.061Z,7.98
2023-04-15T22:54:34.406Z,7.98
2023-04-15T22:56:39.273Z,7.98
2023-04-15T22:58:42.729Z,7.97
2023-04-15T23:00:46.323Z,7.97
2023-04-15T23:02:49.924Z,7.97
2023-04-15T23:04:53.561Z,7.96
2023-04-15T23:06:57.297Z,7.95
2023-04-15T23:09:00.871Z,7.93
2023-04-15T23:11:04.319Z,7.93
2023-04-15T23:13:09.199Z,7.91
2023-04-15T23:15:13.178Z,7.89
2023-04-15T23:17:16.729Z,7.87
2023-04-15T23:19:20.331Z,7.87
2023-04-15T23:21:25.964Z,7.84
2023-04-15T23:23:29.591Z,7.83
2023-04-15T23:25:33.048Z,7.82
2023-04-15T23:27:39.164Z,7.81
2023-04-15T23:29:44.183Z,7.79
2023-04-15T23:31:47.681Z,7.78
2023-04-15T23:33:51.273Z,7.77
2023-04-15T23:35:54.895Z,7.76
2023-04-15T23:37:58.396Z,7.76
2023-04-15T23:40:01.870Z,7.75
2023-04-15T23:42:05.498Z,7.71
2023-04-15T23:44:09.820Z,7.71
2023-04-15T23:46:14.747Z,7.69
2023-04-15T23:48:18.272Z,7.67
2023-04-15T23:50:21.728Z,7.66
2023-04-15T23:52:25.162Z,7.65
2023-04-15T23:54:28.594Z,7.63
2023-04-15T23:56:32.264Z,7.62
2023-04-15T23:58:35.778Z,7.60
